createdAt,value
2023-05-12T00:02:02.234Z,19.14
2023-05-12T00:04:30.349Z,19.17
2023-05-12T00:06:59.770Z,19.16
2023-05-12T00:09:27.819Z,19.11
2023-05-12T00:11:55.893Z,19.12
2023-05-12T00:14:24.023Z,19.13
2023-05-12T00:16:52.540Z,19.14
2023-05-12T00:19:21.176Z,19.12
2023-05-12T00:21:49.191Z,19.12
2023-05-12T00:24:18.577Z,19.13
2023-05-12T00:26:46.642Z,19.10
2023-05-12T00:29:14.657Z,19.10
2023-05-12T00:31:42.717Z,19.09
2023-05-12T00:34:10.839Z,19.09
2023-05-12T00:36:38.907Z,19.13
2023-05-12T00:39:06.932Z,19.14
2023-05-12T00:41:36.710Z,19.17
2023-05-12T00:44:04.846Z,19.18
2023-05-12T00:46:33.034Z,19.16
2023-05-12T00:49:01.111Z,19.18
2023-05-12T00:51:29.688Z,19.16
2023-05-12T00:53:58.234Z,18.97
2023-05-12T00:56:26.908Z,18.97
2023-05-12T00:58:56.473Z,18.95
2023-05-12T01:01:24.711Z,18.94
2023-05-12T01:03:55.465Z,18.95
2023-05-12T01:06:28.966Z,18.93
2023-05-12T01:08:58.623Z,18.95
2023-05-12T01:11:26.784Z,18.95
2023-05-12T01:13:56.217Z,18.95
2023-05-12T01:16:27.250Z,18.98
2023-05-12T01:18:57.379Z,18.99
2023-05-12T01:21:25.738Z,18.98
2023-05-12T01:23:59.734Z,18.92
2023-05-12T01:26:32.477Z,18.86
2023-05-12T01:29:03.367Z,18.86
2023-05-12T01:31:32.224Z,18.85
2023-05-12T01:34:00.845Z,18.84
2023-05-12T01:36:29.276Z,18.81
2023-05-12T01:38:57.610Z,18.82
2023-05-12T01:41:25.641Z,18.80
2023-05-12T01:43:55.197Z,18.77
2023-05-12T01:46:23.328Z,18.77
2023-05-12T01:48:52.202Z,18.72
2023-05-12T01:51:20.225Z,18.71
2023-05-12T01:53:48.770Z,18.70
2023-05-12T01:56:17.069Z,18.70
2023-05-12T01:58:45.309Z,18.67
2023-05-12T02:01:14.810Z,18.66
2023-05-12T02:03:44.138Z,18.65
2023-05-12T02:06:14.933Z,18.59
2023-05-12T02:08:43.065Z,18.58
2023-05-12T02:11:11.166Z,18.58
2023-05-12T02:13:39.757Z,18.56
2023-05-12T02:16:08.798Z,18.54
2023-05-12T02:18:38.456Z,18.47
2023-05-12T02:21:08.607Z,18.40
2023-05-12T02:23:37.146Z,18.38
2023-05-12T02:26:05.204Z,18.32
2023-05-12T02:28:33.923Z,18.30
2023-05-12T02:31:01.951Z,18.28
2023-05-12T02:33:31.437Z,18.23
2023-05-12T02:36:00.985Z,18.17
2023-05-12T02:38:29.375Z,18.13
2023-05-12T02:40:57.384Z,18.11
2023-05-12T02:43:26.884Z,18.09
2023-05-12T02:45:55.863Z,18.08
2023-05-12T02:48:23.944Z,18.05
2023-05-12T02:50:53.750Z,18.02
2023-05-12T02:53:23.233Z,18.02
2023-05-12T02:55:51.595Z,17.98
2023-05-12T02:58:19.640Z,17.99
2023-05-12T03:00:54.152Z,18.03
2023-05-12T03:03:28.294Z,18.05
2023-05-12T03:05:57.303Z,18.04
2023-05-12T03:08:26.848Z,18.03
2023-05-12T03:10:54.915Z,18.02
2023-05-12T03:13:23.492Z,18.03
2023-05-12T03:15:51.978Z,18.03
2023-05-12T03:18:20.158Z,18.02
2023-05-12T03:20:48.385Z,18.04
2023-05-12T03:23:16.900Z,18.03
2023-05-12T03:25:46.772Z,18.02
2023-05-12T03:28:14.896Z,18.03
2023-05-12T03:30:42.996Z,18.02
2023-05-12T03:33:11.067Z,17.98
2023-05-12T03:35:39.143Z,18.00
2023-05-12T03:38:07.284Z,18.02
2023-05-12T03:40:35.305Z,17.97
2023-05-12T03:43:05.277Z,18.02
2023-05-12T03:45:33.376Z,18.09
2023-05-12T03:48:01.422Z,18.15
2023-05-12T03:50:30.141Z,18.22
2023-05-12T03:52:58.160Z,18.26
2023-05-12T03:55:26.276Z,18.30
2023-05-12T03:57:54.294Z,18.36
2023-05-12T04:00:24.082Z,18.40
2023-05-12T04:02:52.191Z,18.42
2023-05-12T04:05:20.786Z,18.46
2023-05-12T04:07:48.824Z,18.48
2023-05-12T04:10:17.272Z,18.52
2023-05-12T04:12:45.330Z,18.53
2023-05-12T04:15:14.846Z,18.54
2023-05-12T04:17:44.288Z,18.56
2023-05-12T04:20:13.805Z,18.53
2023-05-12T04:22:41.912Z,18.56
2023-05-12T04:25:10.992Z,18.58
2023-05-12T04:27:40.372Z,18.61
2023-05-12T04:30:09.703Z,18.58
2023-05-12T04:32:40.038Z,18.55
2023-05-12T04:35:10.619Z,18.54
2023-05-12T04:37:38.720Z,18.52
2023-05-12T04:40:08.931Z,18.51
2023-05-12T04:42:37.553Z,18.54
2023-05-12T04:45:07.666Z,18.56
2023-05-12T04:47:36.816Z,18.56
2023-05-12T04:50:05.870Z,18.62
2023-05-12T04:52:35.758Z,18.67
2023-05-12T04:55:04.014Z,18.67
2023-05-12T04:57:32.333Z,18.68
2023-05-12T05:00:04.855Z,18.69
2023-05-12T05:02:33.815Z,18.71
2023-05-12T05:05:02.124Z,18.74
2023-05-12T05:07:32.055Z,18.77
2023-05-12T05:10:01.797Z,18.81
2023-05-12T05:12:31.470Z,18.79
2023-05-12T05:14:59.850Z,18.79
2023-05-12T05:17:28.174Z,18.82
2023-05-12T05:19:59.298Z,18.88
2023-05-12T05:22:31.667Z,18.96
2023-05-12T05:25:06.513Z,19.01
2023-05-12T05:27:34.948Z,19.01
2023-05-12T05:30:03.362Z,19.03
2023-05-12T05:32:33.259Z,19.08
2023-05-12T05:35:01.928Z,19.15
2023-05-12T05:37:30.992Z,19.18
2023-05-12T05:39:59.752Z,19.20
2023-05-12T05:42:29.456Z,19.23
2023-05-12T05:44:57.807Z,19.28
2023-05-12T05:47:28.227Z,19.36
2023-05-12T05:49:56.648Z,19.44
2023-05-12T05:52:24.937Z,19.52
2023-05-12T05:54:53.324Z,19.56
2023-05-12T05:57:22.979Z,19.54
2023-05-12T05:59:53.048Z,19.56
2023-05-12T06:02:23.316Z,19.59
2023-05-12T06:04:52.579Z,19.55
2023-05-12T06:07:22.254Z,19.58
2023-05-12T06:09:50.836Z,19.70
2023-05-12T06:12:19.067Z,19.82
2023-05-12T06:14:51.215Z,19.89
2023-05-12T06:17:21.292Z,19.92
2023-05-12T06:19:50.666Z,19.99
2023-05-12T06:22:19.528Z,20.05
2023-05-12T06:24:47.987Z,20.11
2023-05-12T06:27:16.284Z,20.16
2023-05-12T06:29:44.592Z,20.24
2023-05-12T06:32:12.948Z,20.30
2023-05-12T06:34:42.648Z,20.39
2023-05-12T06:37:11.046Z,20.46
2023-05-12T06:39:39.394Z,20.54
2023-05-12T06:42:08.031Z,20.54
2023-05-12T06:44:42.720Z,20.62
2023-05-12T06:47:11.175Z,20.70
2023-05-12T06:49:39.436Z,20.74
2023-05-12T06:52:09.470Z,20.83
2023-05-12T06:54:37.834Z,20.85
2023-05-12T06:57:06.429Z,20.86
2023-05-12T06:59:34.715Z,20.90
2023-05-12T07:02:03.094Z,20.95
2023-05-12T07:04:31.526Z,21.04
2023-05-12T07:06:59.804Z,21.11
2023-05-12T07:09:29.571Z,21.17
2023-05-12T07:11:57.890Z,21.23
2023-05-12T07:14:26.308Z,21.36
2023-05-12T07:16:54.645Z,21.49
2023-05-12T07:19:22.911Z,21.53
2023-05-12T07:21:51.257Z,21.62
2023-05-12T07:24:19.572Z,21.84
2023-05-12T07:26:49.394Z,22.06
2023-05-12T07:29:17.742Z,22.25
2023-05-12T07:31:46.282Z,22.41
2023-05-12T07:34:15.900Z,22.67
2023-05-12T07:36:46.127Z,22.90
2023-05-12T07:39:19.141Z,22.99
2023-05-12T07:41:48.850Z,23.15
2023-05-12T07:44:17.369Z,23.32
2023-05-12T07:46:45.890Z,23.49
2023-05-12T07:49:14.247Z,23.64
2023-05-12T07:51:42.618Z,23.79
2023-05-12T07:54:10.905Z,23.89
2023-05-12T07:56:39.185Z,24.04
2023-05-12T07:59:08.925Z,24.16
2023-05-12T08:01:37.185Z,24.26
2023-05-12T08:04:06.769Z,24.28
2023-05-12T08:06:35.131Z,24.65
2023-05-12T08:09:03.543Z,24.83
2023-05-12T08:11:31.915Z,24.92
2023-05-12T08:14:00.413Z,25.13
2023-05-12T08:16:30.386Z,25.25
2023-05-12T08:18:59.922Z,25.22
2023-05-12T08:21:28.757Z,25.30
2023-05-12T08:23:57.471Z,25.44
2023-05-12T08:26:26.060Z,25.72
2023-05-12T08:28:54.384Z,25.83
2023-05-12T08:31:22.720Z,25.82
2023-05-12T08:34:08.580Z,25.92
2023-05-12T08:36:37.932Z,26.02
2023-05-12T08:39:06.758Z,26.19
2023-05-12T08:41:44.541Z,26.49
2023-05-12T08:44:13.838Z,26.63
2023-05-12T08:46:43.347Z,26.68
2023-05-12T08:49:16.600Z,26.73
2023-05-12T08:51:54.423Z,26.77
2023-05-12T08:54:27.732Z,26.91
2023-05-12T08:59:27.553Z,26.91
2023-05-12T09:01:57.171Z,26.99
2023-05-12T09:04:26.880Z,27.29
2023-05-12T09:06:56.044Z,27.54
2023-05-12T09:09:26.529Z,27.80
2023-05-12T09:11:58.672Z,27.93
2023-05-12T09:14:27.741Z,28.03
2023-05-12T09:17:01.655Z,28.21
2023-05-12T09:19:31.552Z,28.42
2023-05-12T09:22:00.293Z,28.59
2023-05-12T09:24:38.541Z,29.04
2023-05-12T09:27:07.711Z,29.43
2023-05-12T09:29:45.072Z,29.60
2023-05-12T09:32:16.533Z,29.65
2023-05-12T09:34:46.327Z,29.75
2023-05-12T09:37:15.957Z,29.66
2023-05-12T09:39:45.908Z,29.51
2023-05-12T09:42:14.322Z,29.75
2023-05-12T09:44:42.809Z,29.72
2023-05-12T09:47:11.393Z,30.01
2023-05-12T09:49:39.720Z,30.38
2023-05-12T09:52:09.406Z,30.74
2023-05-12T09:54:41.164Z,30.95
2023-05-12T09:57:13.080Z,30.90
2023-05-12T09:59:44.072Z,30.55
2023-05-12T10:02:16.442Z,30.31
2023-05-12T10:04:48.664Z,30.23
2023-05-12T10:07:23.178Z,30.10
2023-05-12T10:09:52.894Z,30.19
2023-05-12T10:12:21.304Z,30.19
2023-05-12T10:14:50.374Z,30.36
2023-05-12T10:17:20.783Z,30.61
2023-05-12T10:19:50.245Z,31.14
2023-05-12T10:22:21.342Z,31.43
2023-05-12T10:24:50.825Z,31.52
2023-05-12T10:27:20.761Z,31.68
2023-05-12T10:29:50.745Z,32.07
2023-05-12T10:32:19.844Z,32.45
2023-05-12T10:34:48.317Z,32.58
2023-05-12T10:37:16.744Z,32.60
2023-05-12T10:39:52.330Z,32.30
2023-05-12T10:42:25.646Z,32.44
2023-05-12T10:44:54.901Z,32.40
2023-05-12T10:47:26.923Z,32.45
2023-05-12T10:49:59.059Z,32.30
2023-05-12T10:52:27.359Z,32.46
2023-05-12T10:55:04.400Z,32.68
2023-05-12T10:57:33.923Z,32.91
2023-05-12T11:00:04.040Z,33.07
2023-05-12T11:02:35.906Z,32.75
2023-05-12T11:05:13.106Z,32.68
2023-05-12T11:07:41.997Z,32.64
2023-05-12T11:12:43.716Z,32.49
2023-05-12T11:15:13.560Z,32.84
2023-05-12T11:17:42.712Z,33.12
2023-05-12T11:20:11.355Z,33.16
2023-05-12T11:22:42.865Z,33.43
2023-05-12T11:25:13.521Z,33.78
2023-05-12T11:27:47.710Z,33.94
2023-05-12T11:30:16.177Z,34.23
2023-05-12T11:32:44.938Z,34.49
2023-05-12T11:35:14.476Z,34.65
2023-05-12T11:37:44.317Z,34.86
2023-05-12T11:40:18.775Z,34.94
2023-05-12T11:42:51.709Z,34.89
2023-05-12T11:45:28.795Z,34.70
2023-05-12T11:48:08.848Z,35.01
2023-05-12T11:50:39.985Z,35.10
2023-05-12T11:53:12.377Z,35.00
2023-05-12T11:55:50.160Z,35.13
2023-05-12T11:58:25.998Z,35.38
2023-05-12T12:00:55.278Z,35.33
2023-05-12T12:03:24.106Z,35.28
2023-05-12T12:06:03.665Z,35.55
2023-05-12T12:08:32.590Z,35.62
2023-05-12T12:11:04.372Z,35.73
2023-05-12T12:13:32.471Z,35.80
2023-05-12T12:16:00.697Z,35.82
2023-05-12T12:18:29.262Z,35.86
2023-05-12T12:20:58.781Z,35.45
2023-05-12T12:23:27.113Z,35.35
2023-05-12T12:25:55.470Z,35.44
2023-05-12T12:28:25.227Z,35.52
2023-05-12T12:30:53.865Z,35.44
2023-05-12T12:33:22.326Z,35.65
2023-05-12T12:35:50.895Z,35.84
2023-05-12T12:38:19.109Z,35.58
2023-05-12T12:40:47.630Z,35.60
2023-05-12T12:43:15.934Z,35.44
2023-05-12T12:45:45.480Z,35.15
2023-05-12T12:48:13.805Z,34.68
2023-05-12T12:50:42.444Z,34.19
2023-05-12T12:53:11.293Z,33.79
2023-05-12T12:55:39.624Z,33.70
2023-05-12T12:58:07.843Z,33.72
2023-05-12T13:00:35.955Z,33.59
2023-05-12T13:03:06.586Z,33.32
2023-05-12T13:05:35.123Z,33.17
2023-05-12T13:08:03.377Z,33.04
2023-05-12T13:10:31.575Z,33.36
2023-05-12T13:13:00.830Z,33.52
2023-05-12T13:15:29.474Z,33.38
2023-05-12T13:17:58.298Z,33.51
2023-05-12T13:20:28.820Z,33.45
2023-05-12T13:22:57.033Z,33.01
2023-05-12T13:25:25.190Z,32.61
2023-05-12T13:27:53.429Z,32.27
2023-05-12T13:30:22.711Z,32.16
2023-05-12T13:32:50.898Z,32.44
2023-05-12T13:35:19.324Z,32.87
2023-05-12T13:37:49.441Z,32.99
2023-05-12T13:40:17.668Z,32.96
2023-05-12T13:42:45.848Z,32.88
2023-05-12T13:45:13.960Z,32.76
2023-05-12T13:47:42.082Z,32.30
2023-05-12T13:50:10.720Z,31.87
2023-05-12T13:52:39.149Z,31.56
2023-05-12T13:55:09.583Z,31.18
2023-05-12T13:57:37.620Z,31.06
2023-05-12T14:00:08.426Z,30.91
2023-05-12T14:02:45.898Z,30.72
2023-05-12T14:05:14.035Z,30.64
2023-05-12T14:07:42.611Z,30.45
2023-05-12T14:10:12.722Z,30.41
2023-05-12T14:12:42.417Z,30.72
2023-05-12T14:15:22.041Z,31.46
2023-05-12T14:17:54.652Z,32.29
2023-05-12T14:20:22.721Z,32.45
2023-05-12T14:22:50.966Z,32.16
2023-05-12T14:25:20.652Z,31.84
2023-05-12T14:27:49.192Z,31.49
2023-05-12T14:30:17.959Z,31.45
2023-05-12T14:32:46.119Z,31.45
2023-05-12T14:35:14.372Z,31.48
2023-05-12T14:37:42.519Z,31.45
2023-05-12T14:40:12.102Z,31.69
2023-05-12T14:42:42.467Z,32.03
2023-05-12T14:45:11.417Z,32.52
2023-05-12T14:47:39.607Z,32.86
2023-05-12T14:50:08.591Z,33.25
2023-05-12T14:52:38.491Z,33.33
2023-05-12T14:55:11.524Z,33.17
2023-05-12T14:57:41.395Z,32.69
2023-05-12T15:00:12.320Z,32.37
2023-05-12T15:02:41.296Z,32.03
2023-05-12T15:05:11.303Z,31.68
2023-05-12T15:07:39.435Z,31.29
2023-05-12T15:10:08.223Z,31.15
2023-05-12T15:12:36.527Z,30.98
2023-05-12T15:15:08.835Z,30.84
2023-05-12T15:17:37.697Z,30.77
2023-05-12T15:20:06.951Z,30.62
2023-05-12T15:22:35.107Z,30.46
2023-05-12T15:25:04.503Z,30.36
2023-05-12T15:27:33.691Z,30.27
2023-05-12T15:30:01.948Z,30.24
2023-05-12T15:32:31.719Z,30.18
2023-05-12T15:34:59.922Z,30.07
2023-05-12T15:37:30.983Z,29.98
2023-05-12T15:39:59.428Z,29.85
2023-05-12T15:42:32.836Z,29.65
2023-05-12T15:45:04.443Z,29.58
2023-05-12T15:47:36.721Z,29.56
2023-05-12T15:50:05.434Z,29.59
2023-05-12T15:52:38.036Z,29.57
2023-05-12T15:55:08.875Z,29.50
2023-05-12T15:57:37.262Z,29.48
2023-05-12T16:00:12.756Z,29.57
2023-05-12T16:02:45.589Z,29.89
2023-05-12T16:05:27.128Z,30.28
2023-05-12T16:07:59.908Z,30.56
2023-05-12T16:10:28.447Z,30.67
2023-05-12T16:12:57.282Z,30.78
2023-05-12T16:15:41.231Z,30.72
2023-05-12T16:18:33.263Z,30.76
2023-05-12T16:21:57.850Z,30.65
2023-05-12T16:24:34.207Z,30.74
2023-05-12T16:27:11.561Z,30.74
2023-05-12T16:29:39.862Z,30.83
2023-05-12T16:32:19.961Z,30.79
2023-05-12T16:34:57.182Z,30.69
2023-05-12T16:37:28.565Z,30.55
2023-05-12T16:40:08.341Z,30.41
2023-05-12T16:42:57.036Z,30.25
2023-05-12T16:45:27.342Z,30.17
2023-05-12T16:47:56.736Z,30.20
2023-05-12T16:50:30.986Z,30.19
2023-05-12T16:52:59.160Z,30.26
2023-05-12T16:55:29.419Z,30.27
2023-05-12T16:58:03.517Z,30.18
2023-05-12T17:00:34.958Z,30.05
2023-05-12T17:03:10.017Z,29.97
2023-05-12T17:05:47.755Z,29.89
2023-05-12T17:08:23.330Z,29.87
2023-05-12T17:10:52.438Z,29.96
2023-05-12T17:13:21.741Z,30.01
2023-05-12T17:15:52.396Z,29.92
2023-05-12T17:18:21.491Z,29.80
2023-05-12T17:20:51.147Z,29.66
2023-05-12T17:23:21.336Z,29.61
2023-05-12T17:25:51.619Z,29.66
2023-05-12T17:28:20.409Z,29.66
2023-05-12T17:30:56.965Z,29.66
2023-05-12T17:33:25.612Z,29.45
2023-05-12T17:36:10.714Z,29.29
2023-05-12T17:38:44.596Z,29.21
2023-05-12T17:41:16.334Z,29.17
2023-05-12T17:43:51.445Z,29.12
2023-05-12T17:46:20.074Z,28.99
2023-05-12T17:48:48.348Z,28.77
2023-05-12T17:51:17.175Z,28.56
2023-05-12T17:53:47.745Z,28.42
2023-05-12T17:56:16.684Z,28.26
2023-05-12T17:58:45.160Z,28.10
2023-05-12T18:01:13.554Z,27.93
2023-05-12T18:03:41.963Z,27.74
2023-05-12T18:06:12.857Z,27.58
2023-05-12T18:08:41.374Z,27.45
2023-05-12T18:11:11.021Z,27.22
2023-05-12T18:13:40.363Z,27.02
2023-05-12T18:16:21.307Z,26.94
2023-05-12T18:18:56.067Z,26.86
2023-05-12T18:21:24.265Z,26.72
2023-05-12T18:23:52.438Z,26.58
2023-05-12T18:26:21.949Z,26.50
2023-05-12T18:28:50.107Z,26.39
2023-05-12T18:31:19.451Z,26.28
2023-05-12T18:33:48.432Z,26.12
2023-05-12T18:36:17.154Z,25.97
2023-05-12T18:38:45.765Z,25.82
2023-05-12T18:45:09.103Z,25.45
2023-05-12T18:47:58.748Z,25.36
2023-05-12T18:50:29.062Z,25.27
2023-05-12T18:52:57.766Z,25.20
2023-05-12T18:55:26.306Z,25.06
2023-05-12T18:57:54.513Z,24.95
2023-05-12T19:00:27.654Z,24.85
2023-05-12T19:02:55.948Z,24.69
2023-05-12T19:09:13.793Z,24.34
2023-05-12T19:11:42.542Z,24.30
2023-05-12T19:14:10.777Z,24.20
2023-05-12T19:16:42.417Z,24.12
2023-05-12T19:19:10.926Z,23.98
2023-05-12T19:21:47.500Z,23.85
2023-05-12T19:24:16.218Z,23.76
2023-05-12T19:26:50.598Z,23.70
2023-05-12T19:29:22.367Z,23.62
2023-05-12T19:32:12.426Z,23.53
2023-05-12T19:34:40.748Z,23.37
2023-05-12T19:37:09.431Z,23.28
2023-05-12T19:39:37.756Z,23.20
2023-05-12T19:42:06.519Z,23.13
2023-05-12T19:44:34.803Z,23.03
2023-05-12T19:50:20.299Z,22.88
2023-05-12T19:52:48.657Z,22.85
2023-05-12T19:55:16.981Z,22.79
2023-05-12T19:57:45.251Z,22.73
2023-05-12T20:00:14.850Z,22.65
2023-05-12T20:02:45.832Z,22.56
2023-05-12T20:05:14.180Z,22.46
2023-05-12T20:07:42.700Z,22.40
2023-05-12T20:10:12.096Z,22.32
2023-05-12T20:12:40.645Z,22.26
2023-05-12T20:15:10.024Z,22.16
2023-05-12T20:17:38.248Z,22.06
2023-05-12T20:20:11.430Z,22.02
2023-05-12T20:22:39.785Z,21.99
2023-05-12T20:25:08.487Z,21.96
2023-05-12T20:27:37.056Z,21.87
2023-05-12T20:30:12.317Z,21.79
2023-05-12T20:32:41.373Z,21.72
2023-05-12T20:35:11.291Z,21.63
2023-05-12T20:37:40.705Z,21.60
2023-05-12T20:40:10.875Z,21.49
2023-05-12T20:42:41.817Z,21.42
2023-05-12T20:45:13.614Z,21.32
2023-05-12T20:47:42.153Z,21.23
2023-05-12T20:50:12.696Z,21.14
2023-05-12T20:52:42.433Z,21.02
2023-05-12T20:55:12.752Z,20.93
2023-05-12T20:57:41.401Z,20.87
2023-05-12T21:00:11.569Z,20.85
2023-05-12T21:02:40.778Z,20.84
2023-05-12T21:05:10.419Z,20.80
2023-05-12T21:07:41.227Z,20.78
2023-05-12T21:10:10.489Z,20.73
2023-05-12T21:12:40.009Z,20.63
2023-05-12T21:15:11.807Z,20.58
2023-05-12T21:17:41.146Z,20.57
2023-05-12T21:20:11.912Z,20.50
2023-05-12T21:22:42.063Z,20.47
2023-05-12T21:25:11.422Z,20.43
2023-05-12T21:27:41.508Z,20.35
2023-05-12T21:30:11.365Z,20.35
2023-05-12T21:32:39.684Z,20.34
2023-05-12T21:35:08.944Z,20.32
2023-05-12T21:37:37.154Z,20.31
2023-05-12T21:40:07.972Z,20.31
2023-05-12T21:42:36.238Z,20.28
2023-05-12T21:45:04.763Z,20.22
2023-05-12T21:47:33.229Z,20.19
2023-05-12T21:50:03.646Z,20.19
2023-05-12T21:52:32.708Z,20.18
2023-05-12T21:55:03.319Z,20.13
2023-05-12T21:57:32.951Z,20.12
2023-05-12T22:00:03.935Z,20.12
2023-05-12T22:02:37.833Z,20.05
2023-05-12T22:05:06.734Z,20.01
2023-05-12T22:07:34.838Z,19.98
2023-05-12T22:10:03.803Z,19.95
2023-05-12T22:12:33.369Z,19.90
2023-05-12T22:15:01.773Z,19.86
2023-05-12T22:17:29.882Z,19.84
2023-05-12T22:19:58.234Z,19.79
2023-05-12T22:22:26.525Z,19.77
2023-05-12T22:24:54.731Z,19.75
2023-05-12T22:27:23.127Z,19.70
2023-05-12T22:29:52.713Z,19.67
2023-05-12T22:32:20.932Z,19.63
2023-05-12T22:34:49.218Z,19.60
2023-05-12T22:37:17.314Z,19.55
2023-05-12T22:39:45.578Z,19.52
2023-05-12T22:42:13.748Z,19.47
2023-05-12T22:44:41.838Z,19.42
2023-05-12T22:47:11.540Z,19.41
2023-05-12T22:49:40.723Z,19.37
2023-05-12T22:52:09.074Z,19.32
2023-05-12T22:54:37.261Z,19.28
2023-05-12T22:57:05.796Z,19.23
2023-05-12T22:59:33.898Z,19.21
2023-05-12T23:02:02.130Z,19.18
2023-05-12T23:04:31.793Z,19.15
2023-05-12T23:06:59.968Z,19.08
2023-05-12T23:09:28.142Z,19.06
2023-05-12T23:11:56.399Z,18.98
2023-05-12T23:14:24.725Z,18.95
2023-05-12T23:16:53.015Z,18.94
2023-05-12T23:19:21.190Z,18.91
2023-05-12T23:21:51.232Z,18.88
2023-05-12T23:24:19.434Z,18.85
2023-05-12T23:26:47.633Z,18.81
2023-05-12T23:29:15.762Z,18.80
2023-05-12T23:31:44.024Z,18.79
2023-05-12T23:34:12.478Z,18.76
2023-05-12T23:36:40.630Z,18.76
2023-05-12T23:39:10.172Z,18.73
2023-05-12T23:41:38.289Z,18.71
2023-05-12T23:44:06.591Z,18.71
2023-05-12T23:46:34.693Z,18.74
2023-05-12T23:49:02.841Z,18.72
2023-05-12T23:51:31.700Z,18.71
2023-05-12T23:53:59.871Z,18.69
2023-05-12T23:56:29.454Z,18.70
2023-05-12T23:58:57.585Z,18.69
